Time;durP1;ratioP1;P1;durP2;ratioP2;P2;SDS_P1;SDS_P2;PMS_P1;PMS_P2;Temp;Humidity;BMP_temperature;BMP_pressure;BME280_temperature;BME280_humidity;BME280_pressure;Samples;Min_cycle;Max_cycle;Signal;HPM_P1;HPM_P2
2024/01/05 00:00:04;;;;;;;;;;;;;;;12.96;59.44;98963.81;4912108;28;7029;-82
2024/01/05 00:02:29;;;;;;;;;;;;;;;12.96;58.98;98958.69;4918444;28;6800;-82
2024/01/05 00:04:55;;;;;;;;;;;;;;;12.94;59.78;98950.94;4929092;28;8268;-82
2024/01/05 00:07:21;;;;;;;;;;;;;;;12.89;59.32;98953.44;4910518;28;8605;-82
2024/01/05 00:09:47;;;;;;;;;;;;;;;12.87;58.85;98952.56;4924326;28;6791;-85
2024/01/05 00:12:12;;;;;;;;;;;;;;;12.83;58.92;98944.78;4913289;28;8537;-85
2024/01/05 00:14:38;;;;;;;;;;;;;;;12.79;59.56;98936.13;4910237;28;8566;-85
2024/01/05 00:17:04;;;;;;;;;;;;;;;12.74;58.90;98933.50;4927152;28;6780;-84
2024/01/05 00:19:29;;;;;;;;;;;;;;;12.72;59.10;98937.75;4917582;28;6776;-83
2024/01/05 00:21:55;;;;;;;;;;;;;;;12.72;59.49;98944.59;4900771;29;8547;-85
2024/01/05 00:24:20;;;;;;;;;;;;;;;12.70;58.93;98943.72;4904788;29;7017;-84
2024/01/05 00:26:46;;;;;;;;;;;;;;;12.64;58.66;98947.91;4928000;29;9489;-84
2024/01/05 00:29:12;;;;;;;;;;;;;;;12.58;58.90;98949.50;4908016;28;8410;-84
2024/01/05 00:31:37;;;;;;;;;;;;;;;12.49;58.44;98942.53;4918056;28;6772;-85
2024/01/05 00:34:03;;;;;;;;;;;;;;;12.43;58.66;98947.53;4902590;28;8446;-87
2024/01/05 00:36:29;;;;;;;;;;;;;;;12.33;59.29;98939.69;4924684;29;6788;-87
2024/01/05 00:38:54;;;;;;;;;;;;;;;12.27;58.41;98937.03;4911072;29;8532;-85
2024/01/05 00:41:20;;;;;;;;;;;;;;;12.24;58.86;98930.97;4936964;28;6784;-87
2024/01/05 00:43:46;;;;;;;;;;;;;;;12.22;59.06;98923.22;4932011;28;7048;-87
2024/01/05 00:46:11;;;;;;;;;;;;;;;12.20;59.28;98927.47;4937187;28;6854;-86
2024/01/05 00:48:37;;;;;;;;;;;;;;;12.21;59.25;98922.34;4923652;28;6962;-85
2024/01/05 00:51:03;;;;;;;;;;;;;;;12.22;59.98;98918.97;4916819;29;8679;-85
2024/01/05 00:53:28;;;;;;;;;;;;;;;12.30;60.02;98916.50;4925200;28;6856;-86
2024/01/05 00:55:54;;;;;;;;;;;;;;;12.36;59.69;98905.47;4924118;29;7314;-85
2024/01/05 00:58:19;;;;;;;;;;;;;;;12.42;59.88;98905.59;4933466;28;8869;-86
2024/01/05 01:00:45;;;;;;;;;;;;;;;12.46;59.84;98899.66;4933378;28;6784;-85
2024/01/05 01:03:10;;;;;;;;;;;;;;;12.52;59.32;98900.59;4921110;28;8559;-86
2024/01/05 01:05:36;;;;;;;;;;;;;;;12.61;59.90;98896.44;4934101;28;6860;-85
2024/01/05 01:08:02;;;;;;;;;;;;;;;12.68;59.89;98892.25;4920429;28;8809;-85
2024/01/05 01:10:27;;;;;;;;;;;;;;;12.75;59.88;98893.25;4922344;28;8129;-85
2024/01/05 01:12:56;;;;;;;;;;;;;;;12.83;59.00;98886.47;4908880;28;8242;-85
2024/01/05 01:15:21;;;;;;;;;;;;;;;12.91;58.72;98886.63;4904618;28;8366;-85
2024/01/05 01:17:47;;;;;;;;;;;;;;;12.96;58.68;98884.09;4910272;28;8493;-86
2024/01/05 01:20:12;;;;;;;;;;;;;;;12.99;58.79;98863.56;4919245;28;7153;-83
2024/01/05 01:22:38;;;;;;;;;;;;;;;13.00;58.92;98862.72;4925471;28;6784;-83
2024/01/05 01:25:04;;;;;;;;;;;;;;;12.97;58.33;98857.53;4923231;28;7257;-83
2024/01/05 01:27:30;;;;;;;;;;;;;;;12.93;57.93;98861.78;4909117;28;7001;-82
2024/01/05 01:29:56;;;;;;;;;;;;;;;12.88;58.26;98853.13;4937103;28;6812;-83
2024/01/05 01:32:21;;;;;;;;;;;;;;;12.80;57.60;98845.31;4922735;28;7167;-83
2024/01/05 01:34:47;;;;;;;;;;;;;;;12.74;58.21;98840.06;4921603;28;6776;-83
2024/01/05 01:37:12;;;;;;;;;;;;;;;12.67;57.56;98844.28;4913075;28;8409;-82
2024/01/05 01:39:38;;;;;;;;;;;;;;;12.59;58.12;98835.56;4922453;28;8370;-83
2024/01/05 01:42:04;;;;;;;;;;;;;;;12.51;57.43;98848.31;4925224;28;7643;-83
2024/01/05 01:44:30;;;;;;;;;;;;;;;12.43;58.58;98834.50;4918893;28;6824;-83
2024/01/05 01:46:56;;;;;;;;;;;;;;;12.40;58.32;98824.19;4915687;28;8954;-83
2024/01/05 01:49:24;;;;;;;;;;;;;;;12.39;58.97;98825.03;4906016;28;8562;-83
2024/01/05 01:51:50;;;;;;;;;;;;;;;12.36;58.93;98816.44;4908256;28;8458;-83
2024/01/05 01:54:16;;;;;;;;;;;;;;;12.38;58.25;98823.28;4919969;28;7369;-83
2024/01/05 01:56:45;;;;;;;;;;;;;;;12.38;58.05;98820.72;4921860;28;8556;-83
2024/01/05 01:59:13;;;;;;;;;;;;;;;12.39;58.33;98819.88;4923737;28;6808;-83
2024/01/05 02:01:42;;;;;;;;;;;;;;;12.39;58.53;98819.88;4933215;28;7170;-83
2024/01/05 02:04:15;;;;;;;;;;;;;;;12.40;58.55;98819.03;4921330;28;7119;-83
2024/01/05 02:06:45;;;;;;;;;;;;;;;12.39;58.18;98813.03;4921924;28;8512;-83
2024/01/05 02:09:11;;;;;;;;;;;;;;;12.38;58.11;98797.59;4919020;28;8434;-83
2024/01/05 02:11:38;;;;;;;;;;;;;;;12.38;58.99;98789.91;4922885;28;8460;-83
2024/01/05 02:14:04;;;;;;;;;;;;;;;12.40;58.18;98793.34;4937673;28;7018;-83
2024/01/05 02:16:30;;;;;;;;;;;;;;;12.40;58.49;98804.47;4921598;28;6847;-83
2024/01/05 02:18:55;;;;;;;;;;;;;;;12.41;57.85;98800.22;4916141;28;7084;-83
2024/01/05 02:21:30;;;;;;;;;;;;;;;12.42;57.76;98786.50;4920312;28;8389;-83
2024/01/05 02:23:56;;;;;;;;;;;;;;;12.42;57.82;98786.50;4926875;28;8340;-83
2024/01/05 02:26:22;;;;;;;;;;;;;;;12.43;58.34;98793.38;4922445;28;8791;-83
2024/01/05 02:28:48;;;;;;;;;;;;;;;12.43;58.29;98786.53;4919014;28;6972;-83
2024/01/05 02:31:13;;;;;;;;;;;;;;;12.44;58.05;98782.25;4933810;28;6959;-83
2024/01/05 02:33:39;;;;;;;;;;;;;;;12.44;57.92;98780.56;4907148;28;8722;-83
2024/01/05 02:36:05;;;;;;;;;;;;;;;12.42;57.55;98776.25;4925176;28;6772;-84
2024/01/05 02:38:31;;;;;;;;;;;;;;;12.39;57.41;98771.91;4920538;28;7158;-83
2024/01/05 02:40:58;;;;;;;;;;;;;;;12.36;57.56;98771.88;4921504;28;8348;-84
2024/01/05 02:43:23;;;;;;;;;;;;;;;12.31;57.84;98771.81;4925853;28;8500;-83
2024/01/05 02:45:49;;;;;;;;;;;;;;;12.29;57.45;98768.38;4911411;28;8484;-83
2024/01/05 02:48:15;;;;;;;;;;;;;;;12.29;58.13;98764.91;4936676;28;6776;-84
2024/01/05 02:50:40;;;;;;;;;;;;;;;12.29;57.63;98760.66;4921271;28;6831;-83
2024/01/05 02:53:06;;;;;;;;;;;;;;;12.30;58.06;98766.63;4933776;28;6800;-83
2024/01/05 02:55:31;;;;;;;;;;;;;;;12.29;57.54;98770.94;4922098;28;7141;-84
2024/01/05 02:57:57;;;;;;;;;;;;;;;12.30;57.77;98764.94;4906602;29;8583;-83
2024/01/05 03:00:23;;;;;;;;;;;;;;;12.30;57.09;98770.09;4918561;28;8464;-83
2024/01/05 03:02:48;;;;;;;;;;;;;;;12.29;57.35;98770.94;4937183;28;6792;-83
2024/01/05 03:05:14;;;;;;;;;;;;;;;12.27;57.54;98772.63;4921327;28;6776;-83
2024/01/05 03:07:42;;;;;;;;;;;;;;;12.22;57.26;98771.66;4936832;28;8469;-83
2024/01/05 03:10:07;;;;;;;;;;;;;;;12.18;56.89;98775.03;4907651;28;8535;-84
2024/01/05 03:12:33;;;;;;;;;;;;;;;12.11;57.30;98779.19;4905576;28;7115;-83
2024/01/05 03:14:59;;;;;;;;;;;;;;;12.03;57.06;98778.25;4925985;28;8476;-83
2024/01/05 03:17:24;;;;;;;;;;;;;;;11.95;57.27;98775.50;4922878;28;6802;-83
2024/01/05 03:19:50;;;;;;;;;;;;;;;11.86;57.04;98781.34;4932596;28;6792;-83
2024/01/05 03:22:16;;;;;;;;;;;;;;;11.78;57.11;98772.66;4922074;28;6955;-83
2024/01/05 03:24:43;;;;;;;;;;;;;;;11.69;56.92;98770.81;4936006;28;7251;-83
2024/01/05 03:27:13;;;;;;;;;;;;;;;11.62;57.14;98766.41;4905375;29;8427;-83
2024/01/05 03:29:39;;;;;;;;;;;;;;;11.59;57.75;98769.78;4922884;28;7223;-83
2024/01/05 03:32:05;;;;;;;;;;;;;;;11.59;58.04;98756.06;4900481;28;8641;-83
2024/01/05 03:34:30;;;;;;;;;;;;;;;11.60;57.98;98747.56;4915937;28;8420;-83
2024/01/05 03:36:56;;;;;;;;;;;;;;;11.60;57.89;98752.69;4919535;28;6780;-83
2024/01/05 03:39:22;;;;;;;;;;;;;;;11.59;57.80;98743.22;4920206;28;8387;-83
2024/01/05 03:41:47;;;;;;;;;;;;;;;11.60;57.73;98747.56;4921932;28;8509;-83
2024/01/05 03:44:20;;;;;;;;;;;;;;;11.66;58.59;98743.38;4938491;28;7204;-83
2024/01/05 03:46:50;;;;;;;;;;;;;;;11.75;57.83;98732.38;4919981;28;6984;-83
2024/01/05 03:49:16;;;;;;;;;;;;;;;11.84;57.80;98726.56;4920845;28;8624;-84
2024/01/05 03:51:42;;;;;;;;;;;;;;;11.95;58.69;98739.53;4910156;29;6900;-84
2024/01/05 03:54:08;;;;;;;;;;;;;;;12.05;58.63;98730.34;4923630;28;6800;-83
2024/01/05 03:56:41;;;;;;;;;;;;;;;12.17;58.20;98732.22;4923763;28;6844;-84
2024/01/05 03:59:07;;;;;;;;;;;;;;;12.29;58.46;98726.38;4928297;29;7083;-83
2024/01/05 04:01:33;;;;;;;;;;;;;;;12.39;58.48;98728.22;4933910;28;6814;-83
2024/01/05 04:03:59;;;;;;;;;;;;;;;12.50;58.02;98725.81;4910796;28;8805;-83
2024/01/05 04:06:25;;;;;;;;;;;;;;;12.58;57.63;98711.38;4909821;28;7174;-84
2024/01/05 04:08:51;;;;;;;;;;;;;;;12.62;57.50;98707.13;4923389;28;6784;-83
2024/01/05 04:11:21;;;;;;;;;;;;;;;12.61;57.02;98695.97;4922379;28;6845;-84
2024/01/05 04:13:47;;;;;;;;;;;;;;;12.58;56.52;98695.06;4923751;28;7138;-83
2024/01/05 04:16:13;;;;;;;;;;;;;;;12.52;56.45;98697.59;4934444;28;7160;-83
2024/01/05 04:18:39;;;;;;;;;;;;;;;12.44;57.11;98688.06;4917464;28;8822;-83
2024/01/05 04:21:05;;;;;;;;;;;;;;;12.44;56.96;98689.75;4934979;28;7059;-83
2024/01/05 04:23:32;;;;;;;;;;;;;;;12.42;56.56;98678.59;4915907;28;6989;-83
2024/01/05 04:25:57;;;;;;;;;;;;;;;12.46;57.09;98680.38;4907087;28;8382;-83
2024/01/05 04:28:23;;;;;;;;;;;;;;;12.48;56.29;98683.84;4920860;28;8500;-84
2024/01/05 04:30:48;;;;;;;;;;;;;;;12.45;56.57;98663.22;4923877;28;6782;-84
2024/01/05 04:33:19;;;;;;;;;;;;;;;12.42;56.61;98671.78;4918675;28;8352;-84
2024/01/05 04:35:46;;;;;;;;;;;;;;;12.39;57.00;98665.72;4937317;28;6868;-84
2024/01/05 04:38:11;;;;;;;;;;;;;;;12.35;56.06;98668.25;4911726;29;8425;-84
2024/01/05 04:40:37;;;;;;;;;;;;;;;12.32;56.72;98662.22;4922576;29;8450;-84
2024/01/05 04:43:03;;;;;;;;;;;;;;;12.30;55.87;98649.34;4924600;28;7593;-84
2024/01/05 04:45:40;;;;;;;;;;;;;;;12.30;56.31;98651.91;4942443;28;7258;-84
2024/01/05 04:48:06;;;;;;;;;;;;;;;12.32;56.39;98636.53;4935594;28;7154;-84
2024/01/05 04:50:32;;;;;;;;;;;;;;;12.33;56.47;98633.97;4912861;28;8526;-84
2024/01/05 04:52:59;;;;;;;;;;;;;;;12.35;56.21;98636.56;4944059;28;8671;-82
2024/01/05 04:55:25;;;;;;;;;;;;;;;12.34;55.92;98622.84;4942090;28;6808;-82
2024/01/05 04:57:51;;;;;;;;;;;;;;;12.34;56.09;98610.00;4930307;28;8402;-82
2024/01/05 05:00:23;;;;;;;;;;;;;;;12.34;55.81;98615.13;4911348;28;8381;-82
2024/01/05 05:02:51;;;;;;;;;;;;;;;12.32;55.53;98609.13;4924812;28;6796;-82
2024/01/05 05:05:16;;;;;;;;;;;;;;;12.34;55.75;98614.28;4908408;28;8636;-83
2024/01/05 05:07:43;;;;;;;;;;;;;;;12.35;54.92;98613.44;4939512;28;6971;-83
2024/01/05 05:10:08;;;;;;;;;;;;;;;12.38;54.86;98604.91;4940966;28;6944;-84
2024/01/05 05:12:34;;;;;;;;;;;;;;;12.40;54.90;98598.09;4908331;28;8336;-82
2024/01/05 05:15:00;;;;;;;;;;;;;;;12.38;55.14;98600.63;4910740;28;8959;-83
2024/01/05 05:17:26;;;;;;;;;;;;;;;12.40;54.45;98604.06;4935642;28;6757;-81
2024/01/05 05:19:54;;;;;;;;;;;;;;;12.39;54.64;98610.06;4921012;28;8522;-82
2024/01/05 05:22:21;;;;;;;;;;;;;;;12.41;54.26;98610.09;4909231;28;8694;-81
2024/01/05 05:24:47;;;;;;;;;;;;;;;12.41;54.94;98599.81;4943658;28;6788;-81
2024/01/05 05:27:12;;;;;;;;;;;;;;;12.38;54.55;98594.66;4924210;28;6824;-82
2024/01/05 05:29:38;;;;;;;;;;;;;;;12.36;54.32;98592.03;4915863;28;7163;-82
2024/01/05 05:32:04;;;;;;;;;;;;;;;12.34;54.44;98598.88;4919159;28;8396;-82
2024/01/05 05:34:31;;;;;;;;;;;;;;;12.32;53.79;98593.72;4924565;28;6911;-82
2024/01/05 05:36:57;;;;;;;;;;;;;;;12.33;53.65;98598.00;4924629;28;8637;-82
2024/01/05 05:39:26;;;;;;;;;;;;;;;12.30;53.75;98600.53;4944707;28;6776;-83
2024/01/05 05:41:51;;;;;;;;;;;;;;;12.29;54.14;98600.50;4929426;28;6796;-82
2024/01/05 05:44:17;;;;;;;;;;;;;;;12.27;53.73;98602.22;4918480;28;8407;-81
2024/01/05 05:46:45;;;;;;;;;;;;;;;12.26;53.87;98605.63;4914904;28;8351;-81
2024/01/05 05:49:11;;;;;;;;;;;;;;;12.24;53.37;98602.19;4937017;23;8674;-83
2024/01/05 05:51:37;;;;;;;;;;;;;;;12.22;53.55;98597.88;4963980;28;7239;-83
2024/01/05 05:54:02;;;;;;;;;;;;;;;12.20;54.19;98602.13;4948066;28;7127;-81
2024/01/05 05:56:28;;;;;;;;;;;;;;;12.20;53.98;98606.41;4963901;28;8276;-82
2024/01/05 05:58:54;;;;;;;;;;;;;;;12.20;54.02;98607.25;4948254;28;8517;-82
2024/01/05 06:01:20;;;;;;;;;;;;;;;12.22;53.65;98610.72;4948776;28;8441;-84
2024/01/05 06:03:45;;;;;;;;;;;;;;;12.27;53.74;98618.50;4952509;28;6791;-86
2024/01/05 06:06:21;;;;;;;;;;;;;;;12.31;53.36;98611.66;4963887;28;7166;-85
2024/01/05 06:08:47;;;;;;;;;;;;;;;12.33;53.11;98605.72;4958509;28;7336;-84
2024/01/05 06:11:18;;;;;;;;;;;;;;;12.41;53.96;98599.81;4947030;28;7197;-83
2024/01/05 06:13:45;;;;;;;;;;;;;;;12.51;54.05;98601.63;4946116;28;8512;-84
2024/01/05 06:16:12;;;;;;;;;;;;;;;12.60;53.79;98594.03;4968205;28;8415;-84
2024/01/05 06:18:39;;;;;;;;;;;;;;;12.67;52.73;98586.38;4964641;28;8450;-83
2024/01/05 06:21:05;;;;;;;;;;;;;;;12.70;52.61;98605.28;4957141;28;6883;-83
2024/01/05 06:23:32;;;;;;;;;;;;;;;12.73;53.12;98614.72;4960219;28;6968;-84
2024/01/05 06:25:57;;;;;;;;;;;;;;;12.71;52.82;98613.84;4962413;28;6966;-84
2024/01/05 06:28:23;;;;;;;;;;;;;;;12.69;52.33;98610.41;4953591;28;8693;-85
2024/01/05 06:30:49;;;;;;;;;;;;;;;12.68;52.64;98606.94;4956821;28;6788;-85
2024/01/05 06:33:15;;;;;;;;;;;;;;;12.67;52.50;98623.22;4969567;28;7048;-84
2024/01/05 06:35:41;;;;;;;;;;;;;;;12.67;52.02;98624.94;4945659;28;8636;-84
2024/01/05 06:38:07;;;;;;;;;;;;;;;12.67;52.76;98618.09;4975054;28;6772;-83
2024/01/05 06:40:32;;;;;;;;;;;;;;;12.67;51.76;98617.25;4960503;28;8774;-84
2024/01/05 06:42:58;;;;;;;;;;;;;;;12.63;52.25;98630.03;4959531;28;6771;-84
2024/01/05 06:45:24;;;;;;;;;;;;;;;12.60;51.97;98627.44;4943598;28;8427;-84
2024/01/05 06:47:50;;;;;;;;;;;;;;;12.61;51.83;98629.16;4961280;28;7365;-84
2024/01/05 06:50:16;;;;;;;;;;;;;;;12.62;51.79;98630.88;4958688;28;6796;-84
2024/01/05 06:52:42;;;;;;;;;;;;;;;12.62;51.38;98635.19;4955313;28;7141;-85
2024/01/05 06:55:08;;;;;;;;;;;;;;;12.61;51.51;98628.31;4936385;28;7217;-84
2024/01/05 06:57:35;;;;;;;;;;;;;;;12.54;51.85;98617.06;4943212;28;7257;-85
2024/01/05 07:00:09;;;;;;;;;;;;;;;12.50;51.88;98625.59;4944498;28;8457;-84
2024/01/05 07:02:35;;;;;;;;;;;;;;;12.48;51.75;98619.59;4940189;28;12076;-83
2024/01/05 07:05:03;;;;;;;;;;;;;;;12.45;51.53;98616.97;4953919;28;7161;-84
2024/01/05 07:07:29;;;;;;;;;;;;;;;12.44;51.34;98617.81;4926869;28;8546;-84
2024/01/05 07:09:56;;;;;;;;;;;;;;;12.46;50.53;98631.56;4950686;28;7031;-84
2024/01/05 07:12:23;;;;;;;;;;;;;;;12.44;50.88;98628.09;4962615;28;7136;-84
2024/01/05 07:14:48;;;;;;;;;;;;;;;12.45;51.69;98619.53;4957698;28;6800;-84
2024/01/05 07:17:14;;;;;;;;;;;;;;;12.44;50.96;98620.38;4954594;28;6795;-84
2024/01/05 07:19:40;;;;;;;;;;;;;;;12.48;50.85;98615.31;4950866;28;7732;-84
2024/01/05 07:22:07;;;;;;;;;;;;;;;12.56;51.59;98628.25;4960075;28;8603;-83
2024/01/05 07:24:37;;;;;;;;;;;;;;;12.59;50.78;98625.72;4957288;28;6784;-85
2024/01/05 07:27:06;;;;;;;;;;;;;;;12.63;51.46;98627.47;4949918;28;6997;-84
2024/01/05 07:29:31;;;;;;;;;;;;;;;12.65;51.49;98614.63;4935534;28;7155;-85
2024/01/05 07:31:57;;;;;;;;;;;;;;;12.63;50.59;98617.19;4948501;28;6973;-81
2024/01/05 07:34:22;;;;;;;;;;;;;;;12.61;50.67;98618.88;4971249;28;8537;-86
2024/01/05 07:39:16;;;;;;;;;;;;;;;12.54;50.10;98614.50;4954788;28;6945;-75
2024/01/05 07:41:42;;;;;;;;;;;;;;;12.52;49.61;98598.22;4936445;28;7181;-75
2024/01/05 07:44:08;;;;;;;;;;;;;;;12.53;49.39;98615.34;4959111;28;7150;-75
2024/01/05 07:46:41;;;;;;;;;;;;;;;12.55;49.91;98618.78;4942752;28;6768;-75
2024/01/05 07:49:07;;;;;;;;;;;;;;;12.56;49.54;98623.13;4920147;28;6960;-75
2024/01/05 07:51:33;;;;;;;;;;;;;;;12.60;49.77;98598.28;4954419;28;6962;-75
2024/01/05 07:53:58;;;;;;;;;;;;;;;12.61;48.88;98633.44;4957194;28;7306;-74
2024/01/05 07:56:24;;;;;;;;;;;;;;;12.61;48.98;98634.31;4953971;28;6788;-75
2024/01/05 07:58:50;;;;;;;;;;;;;;;12.62;49.07;98630.03;4959148;28;6812;-75
2024/01/05 08:01:20;;;;;;;;;;;;;;;12.59;48.87;98651.41;4956933;28;6784;-75
2024/01/05 08:03:47;;;;;;;;;;;;;;;12.57;49.28;98636.81;4944702;28;7309;-76
2024/01/05 08:06:17;;;;;;;;;;;;;;;12.56;48.72;98641.09;4937662;28;7199;-76
2024/01/05 08:08:47;;;;;;;;;;;;;;;12.60;49.11;98642.84;4939640;28;6780;-75
2024/01/05 08:11:14;;;;;;;;;;;;;;;12.62;48.19;98646.31;4956462;28;7546;-75
2024/01/05 08:13:46;;;;;;;;;;;;;;;12.64;48.23;98657.44;4956617;28;6882;-76
2024/01/05 08:16:12;;;;;;;;;;;;;;;12.66;47.89;98616.34;4926596;28;7213;-76
2024/01/05 08:18:39;;;;;;;;;;;;;;;12.64;47.61;98644.59;4956048;28;7045;-76
2024/01/05 08:21:04;;;;;;;;;;;;;;;12.63;46.66;98642.88;4955911;28;7011;-76
2024/01/05 08:23:31;;;;;;;;;;;;;;;12.63;47.68;98647.19;4956785;28;6919;-74
2024/01/05 08:25:58;;;;;;;;;;;;;;;12.61;47.27;98644.56;4955654;28;7192;-76
2024/01/05 08:28:24;;;;;;;;;;;;;;;12.60;47.32;98649.69;4953987;28;7288;-75
2024/01/05 08:30:49;;;;;;;;;;;;;;;12.59;47.04;98648.84;4951149;28;6789;-76
2024/01/05 08:33:15;;;;;;;;;;;;;;;12.58;47.17;98639.41;4934029;29;6971;-74
2024/01/05 08:35:41;;;;;;;;;;;;;;;12.58;46.62;98644.56;4938276;28;8699;-74
2024/01/05 08:38:07;;;;;;;;;;;;;;;12.56;47.26;98640.22;4956406;28;7221;-75
2024/01/05 08:40:33;;;;;;;;;;;;;;;12.51;46.99;98637.59;4955153;28;7299;-76
2024/01/05 08:42:59;;;;;;;;;;;;;;;12.45;46.89;98640.09;4955582;28;6978;-76
2024/01/05 08:45:25;;;;;;;;;;;;;;;12.41;46.53;98651.19;4933862;28;7018;-74
2024/01/05 08:47:52;;;;;;;;;;;;;;;12.33;46.90;98640.81;4940112;29;7356;-73
2024/01/05 08:50:17;;;;;;;;;;;;;;;12.28;46.84;98651.03;4955826;28;7302;-75
2024/01/05 08:52:44;;;;;;;;;;;;;;;12.22;47.20;98666.38;4922719;29;6965;-73
2024/01/05 08:55:13;;;;;;;;;;;;;;;12.19;46.80;98671.47;4951423;28;6956;-73
2024/01/05 08:57:38;;;;;;;;;;;;;;;12.13;46.86;98661.97;4939702;29;6991;-73
2024/01/05 09:00:09;;;;;;;;;;;;;;;12.15;47.13;98654.28;4957535;29;6847;-74
2024/01/05 09:02:36;;;;;;;;;;;;;;;12.20;47.10;98657.78;4932676;28;13497;-72
2024/01/05 09:05:04;;;;;;;;;;;;;;;12.27;47.46;98669.00;4956079;29;6808;-74
2024/01/05 09:07:33;;;;;;;;;;;;;;;12.33;47.21;98677.63;4955266;28;7040;-74
2024/01/05 09:10:00;;;;;;;;;;;;;;;12.39;47.53;98673.44;4954067;28;6808;-73
2024/01/05 09:12:27;;;;;;;;;;;;;;;12.47;47.05;98674.41;4936633;29;6975;-73
2024/01/05 09:14:53;;;;;;;;;;;;;;;12.54;46.80;98655.63;4933928;29;9479;-73
2024/01/05 09:17:18;;;;;;;;;;;;;;;12.59;46.11;98689.09;4953741;28;6780;-72
2024/01/05 09:19:44;;;;;;;;;;;;;;;12.66;46.71;98695.19;4953986;28;7372;-73
2024/01/05 09:22:11;;;;;;;;;;;;;;;12.69;47.10;98678.06;4938049;29;7278;-75
2024/01/05 09:24:37;;;;;;;;;;;;;;;12.73;47.14;98695.28;4950774;28;6788;-72
2024/01/05 09:27:03;;;;;;;;;;;;;;;12.77;46.42;98693.59;4953964;28;6946;-73
2024/01/05 09:29:33;;;;;;;;;;;;;;;12.78;46.87;98687.63;4938347;28;7213;-73
2024/01/05 09:31:59;;;;;;;;;;;;;;;12.78;46.02;98703.03;4940915;28;7310;-73
2024/01/05 09:34:25;;;;;;;;;;;;;;;12.80;46.75;98696.19;4938880;28;6979;-73
2024/01/05 09:36:50;;;;;;;;;;;;;;;12.81;46.40;98686.78;4957265;28;6830;-73
2024/01/05 09:39:16;;;;;;;;;;;;;;;12.79;46.15;98697.06;4956001;28;7165;-73
2024/01/05 09:41:42;;;;;;;;;;;;;;;12.78;45.69;98685.03;4955522;28;6956;-73
2024/01/05 09:44:11;;;;;;;;;;;;;;;12.78;46.73;98701.31;4938069;28;7066;-73
2024/01/05 09:46:42;;;;;;;;;;;;;;;12.78;46.12;98695.31;4935895;28;7139;-73
2024/01/05 09:49:08;;;;;;;;;;;;;;;12.78;46.37;98698.75;4954753;28;6820;-73
2024/01/05 09:51:35;;;;;;;;;;;;;;;12.79;46.84;98699.63;4938110;28;7203;-73
2024/01/05 09:54:02;;;;;;;;;;;;;;;12.79;46.00;98699.63;4940120;28;7005;-74
2024/01/05 09:56:28;;;;;;;;;;;;;;;12.81;46.19;98713.34;4939733;28;6808;-74
2024/01/05 09:58:55;;;;;;;;;;;;;;;12.84;46.58;98703.09;4926506;28;7057;-72
2024/01/05 10:01:30;;;;;;;;;;;;;;;12.89;46.66;98709.16;4937048;28;6788;-75
2024/01/05 10:04:01;;;;;;;;;;;;;;;12.96;46.37;98719.53;4924507;28;7223;-73
2024/01/05 10:06:28;;;;;;;;;;;;;;;13.01;46.01;98707.56;4956915;28;7036;-74
2024/01/05 10:08:56;;;;;;;;;;;;;;;13.02;46.31;98694.75;4937362;28;8060;-74
2024/01/05 10:11:34;;;;;;;;;;;;;;;13.03;45.34;98724.75;4956545;28;6990;-73
2024/01/05 10:14:03;;;;;;;;;;;;;;;13.02;45.38;98714.44;4940545;28;6987;-73
2024/01/05 10:16:43;;;;;;;;;;;;;;;13.00;45.81;98719.59;4940283;28;6793;-73
2024/01/05 10:19:18;;;;;;;;;;;;;;;12.97;46.22;98727.25;4955605;28;7383;-74
2024/01/05 10:21:46;;;;;;;;;;;;;;;12.96;45.68;98738.38;4940073;28;6812;-75
2024/01/05 10:24:29;;;;;;;;;;;;;;;12.95;45.37;98725.53;4939702;28;6808;-73
2024/01/05 10:27:10;;;;;;;;;;;;;;;12.94;46.33;98736.63;4955073;28;6988;-74
2024/01/05 10:29:44;;;;;;;;;;;;;;;12.93;45.73;98740.91;4924139;28;7067;-74
2024/01/05 10:32:15;;;;;;;;;;;;;;;12.93;45.87;98735.78;4953380;28;6820;-74
2024/01/05 10:34:47;;;;;;;;;;;;;;;12.92;45.33;98736.63;4939173;28;7005;-73
2024/01/05 10:37:15;;;;;;;;;;;;;;;12.90;45.27;98726.31;4955558;28;7258;-73
2024/01/05 10:39:46;;;;;;;;;;;;;;;12.90;45.06;98718.59;4940116;28;7363;-74
2024/01/05 10:42:22;;;;;;;;;;;;;;;12.89;44.74;98721.16;4923275;28;6985;-74
2024/01/05 10:44:53;;;;;;;;;;;;;;;12.90;45.32;98723.75;4956546;28;6792;-74
2024/01/05 10:47:21;;;;;;;;;;;;;;;12.96;45.23;98733.22;4933745;28;7162;-72
2024/01/05 10:49:52;;;;;;;;;;;;;;;13.01;45.51;98726.44;4930919;28;7003;-75
2024/01/05 10:52:22;;;;;;;;;;;;;;;13.14;45.73;98727.44;4931543;28;7154;-76
2024/01/05 10:54:51;;;;;;;;;;;;;;;13.43;45.70;98720.84;4924515;28;6982;-75
2024/01/05 10:57:20;;;;;;;;;;;;;;;13.82;44.96;98723.81;4915754;28;7924;-76
2024/01/05 10:59:55;;;;;;;;;;;;;;;14.14;44.29;98718.03;4923755;28;7043;-76
2024/01/05 11:02:29;;;;;;;;;;;;;;;14.44;44.38;98706.16;4944530;28;6999;-76
2024/01/05 11:05:08;;;;;;;;;;;;;;;14.73;43.20;98710.63;4930109;28;8295;-75
2024/01/05 11:07:35;;;;;;;;;;;;;;;14.94;43.03;98706.38;4922322;28;7094;-76
2024/01/05 11:10:19;;;;;;;;;;;;;;;14.93;41.70;98709.84;4946700;28;6800;-76
2024/01/05 11:13:38;;;;;;;;;;;;;;;14.71;41.93;98699.41;4947593;28;6868;-76
2024/01/05 11:16:36;;;;;;;;;;;;;;;14.52;42.33;98712.22;4945001;28;6995;-76
2024/01/05 11:19:02;;;;;;;;;;;;;;;14.32;42.76;98724.16;4944088;28;7011;-76
2024/01/05 11:21:55;;;;;;;;;;;;;;;14.02;43.49;98690.47;4946720;28;6776;-76
2024/01/05 11:24:23;;;;;;;;;;;;;;;13.61;43.57;98722.75;4945657;28;6917;-76
2024/01/05 11:26:49;;;;;;;;;;;;;;;13.29;44.79;98726.75;4942994;28;6991;-76
2024/01/05 11:29:51;;;;;;;;;;;;;;;13.06;45.02;98708.50;4925249;28;7045;-76
2024/01/05 11:32:52;;;;;;;;;;;;;;;12.78;46.28;98723.59;4942418;28;6860;-76
2024/01/05 11:35:19;;;;;;;;;;;;;;;12.63;47.14;98734.56;4922345;28;6956;-76
2024/01/05 11:37:48;;;;;;;;;;;;;;;12.54;46.97;98729.31;4945957;28;6788;-76
2024/01/05 11:40:31;;;;;;;;;;;;;;;12.40;48.09;98737.66;4943880;28;7237;-76
2024/01/05 11:42:58;;;;;;;;;;;;;;;12.29;48.01;98727.25;4945443;28;7057;-76
2024/01/05 11:45:46;;;;;;;;;;;;;;;12.24;48.82;98730.59;4927273;28;6967;-76
2024/01/05 11:48:33;;;;;;;;;;;;;;;12.20;48.61;98729.69;4928393;28;7066;-76
2024/01/05 11:51:02;;;;;;;;;;;;;;;12.23;49.95;98732.31;4945548;28;6788;-75
2024/01/05 11:53:30;;;;;;;;;;;;;;;12.36;49.78;98721.38;4942985;28;6816;-75
2024/01/05 11:55:57;;;;;;;;;;;;;;;12.47;48.86;98724.06;4942892;28;7403;-76
2024/01/05 11:58:27;;;;;;;;;;;;;;;12.58;48.94;98737.06;4943878;28;6789;-76
2024/01/05 12:00:59;;;;;;;;;;;;;;;12.70;49.68;98730.34;4932592;28;7159;-73
2024/01/05 12:03:25;;;;;;;;;;;;;;;12.75;48.77;98732.13;4937489;28;6792;-74
2024/01/05 12:05:57;;;;;;;;;;;;;;;12.76;48.65;98726.16;4932231;28;7003;-75
2024/01/05 12:08:24;;;;;;;;;;;;;;;12.76;48.39;98726.16;4950702;28;7318;-72
2024/01/05 12:11:02;;;;;;;;;;;;;;;12.81;48.33;98707.38;4937371;28;7287;-73
2024/01/05 12:13:30;;;;;;;;;;;;;;;12.78;48.26;98723.59;4951582;28;7012;-75
2024/01/05 12:16:02;;;;;;;;;;;;;;;12.73;48.31;98720.97;4936045;28;7239;-73
2024/01/05 12:18:30;;;;;;;;;;;;;;;12.67;48.48;98722.63;4930732;28;6979;-75
2024/01/05 12:21:01;;;;;;;;;;;;;;;12.56;49.22;98718.22;4952625;28;7226;-75
2024/01/05 12:23:31;;;;;;;;;;;;;;;12.42;48.95;98724.84;4954141;28;6788;-74
2024/01/05 12:26:03;;;;;;;;;;;;;;;12.29;50.10;98729.81;4954503;28;7035;-72
2024/01/05 12:28:30;;;;;;;;;;;;;;;12.17;49.61;98721.97;4933518;29;8427;-75
2024/01/05 12:31:01;;;;;;;;;;;;;;;12.05;50.02;98720.06;4935932;28;7277;-75
2024/01/05 12:33:29;;;;;;;;;;;;;;;11.95;50.61;98726.72;4948970;29;6970;-74
2024/01/05 12:35:54;;;;;;;;;;;;;;;11.90;51.31;98733.50;4950141;28;7212;-74
2024/01/05 12:38:29;;;;;;;;;;;;;;;11.84;51.03;98733.38;4952626;28;6787;-74
2024/01/05 12:41:19;;;;;;;;;;;;;;;11.78;51.12;98732.47;4928007;29;7166;-75
2024/01/05 12:43:50;;;;;;;;;;;;;;;11.73;51.81;98735.75;4919884;29;6993;-74
2024/01/05 12:46:22;;;;;;;;;;;;;;;11.68;51.46;98740.81;4950915;28;10210;-73
2024/01/05 12:48:48;;;;;;;;;;;;;;;11.63;51.79;98747.59;4951383;28;7240;-74
2024/01/05 12:51:19;;;;;;;;;;;;;;;11.57;52.13;98755.19;4951279;29;7383;-74
2024/01/05 12:53:49;;;;;;;;;;;;;;;11.51;52.01;98749.13;4950500;28;7204;-74
2024/01/05 12:56:20;;;;;;;;;;;;;;;11.46;52.68;98763.53;4930490;29;7056;-75
2024/01/05 12:58:47;;;;;;;;;;;;;;;11.41;52.76;98767.75;4952340;28;6978;-73
2024/01/05 13:01:23;;;;;;;;;;;;;;;11.32;53.02;98770.13;4938309;29;6963;-73
2024/01/05 13:03:56;;;;;;;;;;;;;;;11.25;53.64;98767.44;4955349;28;7675;-75